Time;durP1;ratioP1;P1;durP2;ratioP2;P2;SDS_P1;SDS_P2;PMS_P1;PMS_P2;Temp;Humidity;BMP_temperature;BMP_pressure;BME280_temperature;BME280_humidity;BME280_pressure;Samples;Min_cycle;Max_cycle;Signal;HPM_P1;HPM_P2
2023/03/10 00:00:20;;;;;;;9.77;4.10;;;;;;;12.49;54.35;99142.59;124592;1099;104220;-72
2023/03/10 00:03:12;;;;;;;8.37;3.70;;;;;;;12.48;54.36;99161.91;125877;1097;104220;-71
2023/03/10 00:05:43;;;;;;;7.33;3.80;;;;;;;12.50;54.09;99151.39;124612;1099;104364;-72
2023/03/10 00:08:14;;;;;;;6.47;4.17;;;;;;;12.48;53.90;99148.75;124610;1098;101826;-72
2023/03/10 00:10:46;;;;;;;8.80;3.77;;;;;;;12.44;53.50;99143.45;124594;1099;104188;-72
2023/03/10 00:13:17;;;;;;;7.47;3.40;;;;;;;12.39;53.70;99140.80;124544;1099;104232;-72
2023/03/10 00:15:49;;;;;;;6.43;3.40;;;;;;;12.32;54.25;99144.23;124586;1099;101977;-72
2023/03/10 00:18:21;;;;;;;7.60;4.00;;;;;;;12.25;54.28;99147.68;124568;1099;104476;-72
2023/03/10 00:20:54;;;;;;;7.37;3.60;;;;;;;12.17;53.50;99145.89;124604;1099;104238;-72
2023/03/10 00:23:25;;;;;;;6.63;3.77;;;;;;;12.13;53.77;99144.10;124616;1098;104227;-72
2023/03/10 00:25:58;;;;;;;6.60;4.05;;;;;;;12.08;54.10;99150.22;124646;1099;104297;-72
2023/03/10 00:28:30;;;;;;;8.33;3.80;;;;;;;12.04;54.63;99150.19;124561;1099;102302;-72
2023/03/10 00:31:06;;;;;;;7.90;4.10;;;;;;;11.97;54.39;99144.86;124595;1099;104229;-72
2023/03/10 00:33:37;;;;;;;8.07;4.20;;;;;;;11.92;54.39;99162.29;124595;1099;104176;-72
2023/03/10 00:36:11;;;;;;;6.23;4.03;;;;;;;11.87;54.84;99162.25;124570;1099;104242;-72
2023/03/10 00:38:44;;;;;;;4.70;3.60;;;;;;;11.80;54.40;99166.58;125886;1098;101686;-72
2023/03/10 00:41:17;;;;;;;7.43;3.90;;;;;;;11.75;54.58;99165.66;124597;1099;104297;-72
2023/03/10 00:43:49;;;;;;;10.13;4.67;;;;;;;11.69;54.27;99168.23;124567;1099;104201;-72
2023/03/10 00:46:20;;;;;;;9.40;4.40;;;;;;;11.63;54.80;99174.30;124597;1098;104268;-72
2023/03/10 00:48:51;;;;;;;7.50;4.30;;;;;;;11.57;55.01;99184.73;124153;1099;104325;-72
2023/03/10 00:51:23;;;;;;;7.30;4.20;;;;;;;11.50;55.15;99183.80;124550;1099;104160;-72
2023/03/10 00:53:55;;;;;;;8.50;4.03;;;;;;;11.45;55.55;99195.11;125910;1098;101949;-72
2023/03/10 00:56:26;;;;;;;7.17;3.87;;;;;;;11.39;55.96;99195.94;124546;1099;101860;-72
2023/03/10 00:59:00;;;;;;;7.23;4.03;;;;;;;11.35;54.94;99198.52;124620;1099;104220;-72
2023/03/10 01:01:34;;;;;;;7.60;4.37;;;;;;;11.31;54.99;99195.85;124784;1099;104174;-72
2023/03/10 01:04:07;;;;;;;9.63;4.60;;;;;;;11.28;55.92;99208.04;124588;1098;104233;-72
2023/03/10 01:06:39;;;;;;;7.00;4.00;;;;;;;11.20;55.46;99199.20;124349;1099;104293;-72
2023/03/10 01:09:10;;;;;;;10.63;4.30;;;;;;;11.17;56.09;99207.03;124529;1099;104105;-72
2023/03/10 01:11:42;;;;;;;9.80;4.60;;;;;;;11.12;56.01;99206.98;124806;1099;101820;-72
2023/03/10 01:14:16;;;;;;;7.20;4.27;;;;;;;11.08;56.30;99207.79;124587;1099;104227;-72
2023/03/10 01:16:45;;;;;;;;;;;;;;;11.00;55.47;99204.19;124201;1099;104274;-72
2023/03/10 01:19:17;;;;;;;8.10;4.43;;;;;;;10.97;55.99;99205.05;124561;1099;104097;-72
2023/03/10 01:21:48;;;;;;;7.57;4.50;;;;;;;10.92;56.49;99214.58;124543;1099;104271;-72
2023/03/10 01:24:19;;;;;;;13.30;6.10;;;;;;;10.88;56.67;99203.17;124594;1099;103670;-72
2023/03/10 01:26:51;;;;;;;16.93;7.67;;;;;;;10.82;56.78;99202.22;124594;1099;104217;-72
2023/03/10 01:29:22;;;;;;;19.53;8.17;;;;;;;10.77;56.77;99212.64;124610;1099;101820;-72
2023/03/10 01:31:53;;;;;;;15.47;6.60;;;;;;;10.74;56.58;99220.47;124986;1099;102861;-72
2023/03/10 01:34:24;;;;;;;14.67;6.20;;;;;;;10.71;56.96;99225.67;124568;1099;104344;-72
2023/03/10 01:36:56;;;;;;;11.17;4.73;;;;;;;10.69;56.16;99228.28;124650;1099;104230;-72
2023/03/10 01:39:27;;;;;;;10.37;4.70;;;;;;;10.70;56.64;99223.90;124582;1099;104274;-72
2023/03/10 01:41:59;;;;;;;10.57;4.60;;;;;;;10.68;56.42;99220.38;124605;1099;104313;-72
2023/03/10 01:44:31;;;;;;;10.97;5.00;;;;;;;10.66;56.37;99228.23;124574;1099;104403;-72
2023/03/10 01:47:02;;;;;;;7.37;4.30;;;;;;;10.66;56.88;99232.57;125222;1099;104210;-72
2023/03/10 01:49:39;;;;;;;8.30;4.20;;;;;;;10.60;56.53;99234.25;124590;1098;104241;-72
2023/03/10 01:52:16;;;;;;;7.63;3.87;;;;;;;10.56;57.35;99231.56;124592;1099;102054;-72
2023/03/10 01:54:53;;;;;;;7.77;4.47;;;;;;;10.53;56.35;99226.27;124635;1099;104233;-72
2023/03/10 01:57:27;;;;;;;9.97;4.40;;;;;;;10.52;56.68;99232.39;124212;1099;101939;-72
2023/03/10 02:00:00;;;;;;;9.70;4.73;;;;;;;10.46;57.08;99233.17;124255;1099;104334;-72
2023/03/10 02:02:34;;;;;;;9.53;5.13;;;;;;;10.49;56.62;99238.46;124244;1099;104265;-72
2023/03/10 02:05:07;;;;;;;14.47;6.03;;;;;;;10.48;56.66;99241.06;124556;1099;104157;-72
2023/03/10 02:07:39;;;;;;;9.83;5.47;;;;;;;10.45;57.20;99244.50;124589;1099;104217;-72
2023/03/10 02:10:14;;;;;;;10.83;4.70;;;;;;;10.45;56.85;99251.50;124525;1099;104300;-72
2023/03/10 02:12:45;;;;;;;8.60;4.77;;;;;;;10.45;56.90;99256.74;125160;1099;104066;-72
2023/03/10 02:15:17;;;;;;;8.13;4.60;;;;;;;10.43;56.25;99262.84;124575;1098;104275;-72
2023/03/10 02:17:50;;;;;;;7.03;4.27;;;;;;;10.42;56.20;99266.34;124623;1099;104289;-72
2023/03/10 02:20:27;;;;;;;;;;;;;;;10.40;56.32;99254.05;124598;1098;102331;-72
2023/03/10 02:22:58;;;;;;;9.00;5.10;;;;;;;10.38;56.72;99261.02;124596;1099;104201;-72
2023/03/10 02:25:41;;;;;;;11.47;4.90;;;;;;;10.35;56.75;99259.21;124561;1099;104398;-72
2023/03/10 02:28:13;;;;;;;10.03;5.60;;;;;;;10.33;56.88;99260.94;124580;1099;104287;-72
2023/03/10 02:30:47;;;;;;;9.00;5.33;;;;;;;10.29;56.23;99266.94;124516;1099;104350;-72
2023/03/10 02:33:21;;;;;;;10.70;5.40;;;;;;;10.27;56.37;99268.66;124452;1099;104217;-72
2023/03/10 02:35:52;;;;;;;9.83;5.35;;;;;;;10.23;56.48;99282.56;124621;1098;104644;-72
2023/03/10 02:38:26;;;;;;;8.48;4.95;;;;;;;10.18;56.94;99287.73;124637;1099;104295;-72
2023/03/10 02:40:57;;;;;;;7.03;4.30;;;;;;;10.15;56.81;99290.29;124560;1098;104173;-72
2023/03/10 02:43:34;;;;;;;7.73;4.37;;;;;;;10.13;57.35;99296.35;125906;1098;104290;-72
2023/03/10 02:46:17;;;;;;;8.87;4.80;;;;;;;10.09;57.13;99305.91;124176;1099;104211;-72
2023/03/10 02:48:49;;;;;;;12.00;6.00;;;;;;;10.02;57.34;99304.92;124212;1099;104256;-72
2023/03/10 02:51:31;;;;;;;15.83;8.60;;;;;;;9.96;57.06;99310.05;124565;1099;104245;-72
2023/03/10 02:54:05;;;;;;;14.27;7.40;;;;;;;9.88;57.01;99302.03;124159;1099;104166;-72
2023/03/10 02:56:37;;;;;;;12.90;6.57;;;;;;;9.85;58.26;99306.34;124228;1099;104160;-72
2023/03/10 02:59:09;;;;;;;11.03;6.00;;;;;;;9.82;58.02;99309.77;124179;1099;104232;-72
2023/03/10 03:01:41;;;;;;;11.37;5.13;;;;;;;9.80;57.52;99307.97;124365;1099;104163;-72
2023/03/10 03:04:13;;;;;;;9.70;5.40;;;;;;;9.80;57.75;99310.59;124575;1099;104402;-72
2023/03/10 03:06:44;;;;;;;10.23;5.10;;;;;;;9.79;58.33;99306.22;124522;1099;104236;-72
2023/03/10 03:09:15;;;;;;;9.33;5.23;;;;;;;9.78;57.68;99301.83;124539;1099;104657;-72
2023/03/10 03:11:47;;;;;;;9.43;4.80;;;;;;;9.77;58.03;99311.43;124649;1099;104248;-72
2023/03/10 03:14:18;;;;;;;8.37;4.83;;;;;;;9.77;57.72;99318.38;124582;1099;104261;-72
2023/03/10 03:16:50;;;;;;;8.50;4.10;;;;;;;9.73;58.49;99320.06;124494;1099;104229;-72
2023/03/10 03:19:22;;;;;;;6.27;4.00;;;;;;;9.69;57.85;99326.09;124540;1099;103378;-72
2023/03/10 03:21:53;;;;;;;7.13;4.30;;;;;;;9.67;58.44;99325.19;124518;1099;101973;-72
2023/03/10 03:24:25;;;;;;;6.30;4.40;;;;;;;9.63;58.50;99329.48;124583;1099;101820;-72
2023/03/10 03:26:56;;;;;;;8.60;4.03;;;;;;;9.59;58.47;99334.62;124623;1098;104253;-72
2023/03/10 03:29:29;;;;;;;8.80;4.37;;;;;;;9.56;57.98;99339.80;124546;1098;104198;-72
2023/03/10 03:32:00;;;;;;;9.50;4.50;;;;;;;9.51;58.49;99343.19;124559;1099;104245;-72
2023/03/10 03:34:34;;;;;;;8.57;4.43;;;;;;;9.52;57.93;99344.97;124499;1099;104319;-72
2023/03/10 03:37:07;;;;;;;8.77;4.63;;;;;;;9.55;58.38;99357.22;124538;1099;104185;-72
2023/03/10 03:39:40;;;;;;;;;;;;;;;9.53;58.39;99357.19;124549;1098;104245;-72
2023/03/10 03:42:12;;;;;;;8.43;4.57;;;;;;;9.51;57.94;99360.65;124532;1099;104367;-72
2023/03/10 03:44:48;;;;;;;11.40;5.50;;;;;;;9.49;58.70;99362.33;124261;1099;104179;-72
2023/03/10 03:47:20;;;;;;;11.93;5.60;;;;;;;9.46;58.06;99364.91;124614;1099;104238;-72
2023/03/10 03:49:51;;;;;;;10.10;5.27;;;;;;;9.46;58.41;99375.39;124568;1099;104229;-72
2023/03/10 03:52:22;;;;;;;12.97;5.73;;;;;;;9.44;58.74;99375.35;124590;1099;104197;-72
2023/03/10 03:54:54;;;;;;;13.77;5.37;;;;;;;9.44;58.31;99379.69;124562;1099;104319;-72
2023/03/10 03:57:28;;;;;;;31.70;7.37;;;;;;;9.41;58.52;99388.38;124581;1099;101880;-72
2023/03/10 03:59:59;;;;;;;15.10;5.73;;;;;;;9.39;58.29;99384.81;124549;1099;104300;-72
2023/03/10 04:02:31;;;;;;;11.67;5.40;;;;;;;9.38;58.25;99384.78;124616;1099;104372;-72
2023/03/10 04:05:04;;;;;;;11.30;5.60;;;;;;;9.35;58.48;99381.25;124538;1099;103634;-72
2023/03/10 04:07:38;;;;;;;11.50;5.00;;;;;;;9.32;58.79;99381.19;125622;1099;104246;-72
2023/03/10 04:10:12;;;;;;;13.30;5.40;;;;;;;9.31;58.38;99379.41;124589;1099;104133;-72
2023/03/10 04:12:44;;;;;;;11.00;5.13;;;;;;;9.31;59.05;99381.15;124532;1099;103419;-72
2023/03/10 04:15:15;;;;;;;11.60;5.43;;;;;;;9.30;58.73;99384.61;124554;1099;104207;-72
2023/03/10 04:17:47;;;;;;;12.50;5.70;;;;;;;9.27;59.01;99388.06;125935;1098;104226;-72
2023/03/10 04:20:18;;;;;;;13.37;5.67;;;;;;;9.23;59.19;99380.97;124471;1099;104402;-72
2023/03/10 04:22:52;;;;;;;11.30;5.40;;;;;;;9.20;59.03;99391.37;124517;1099;104176;-72
2023/03/10 04:25:26;;;;;;;12.87;5.97;;;;;;;9.15;59.30;99393.88;124528;1099;102976;-72
2023/03/10 04:27:58;;;;;;;12.40;6.03;;;;;;;9.15;59.08;99396.50;124596;1099;104300;-72
2023/03/10 04:30:29;;;;;;;11.17;6.10;;;;;;;9.13;58.89;99399.91;124493;1099;104274;-72
2023/03/10 04:33:03;;;;;;;12.43;5.93;;;;;;;9.13;59.36;99406.05;125853;1098;101952;-72
2023/03/10 04:35:38;;;;;;;11.95;5.83;;;;;;;9.16;58.96;99413.07;124568;1099;104127;-72
2023/03/10 04:38:10;;;;;;;14.47;6.07;;;;;;;9.19;59.20;99407.91;124539;1099;104248;-72
2023/03/10 04:40:41;;;;;;;11.70;5.47;;;;;;;9.21;59.39;99405.33;124603;1098;104258;-72
2023/03/10 04:43:13;;;;;;;12.13;5.93;;;;;;;9.14;58.94;99407.80;125654;1098;102092;-72
2023/03/10 04:45:45;;;;;;;9.97;5.30;;;;;;;9.10;59.13;99412.92;124121;1099;104332;-72
2023/03/10 04:48:16;;;;;;;13.40;5.77;;;;;;;9.07;60.02;99410.23;124565;1099;102163;-72
2023/03/10 04:50:54;;;;;;;10.57;5.43;;;;;;;9.03;59.82;99413.64;124549;1099;104258;-71
2023/03/10 04:53:26;;;;;;;11.17;5.80;;;;;;;9.02;59.67;99417.97;124244;1099;102845;-71
2023/03/10 04:55:57;;;;;;;12.30;5.57;;;;;;;9.03;60.31;99421.49;124157;1099;104364;-71
2023/03/10 04:58:29;;;;;;;10.23;5.53;;;;;;;8.99;59.83;99418.80;124572;1099;104387;-71
2023/03/10 05:01:00;;;;;;;14.15;6.25;;;;;;;9.00;60.21;99419.67;124557;1099;102815;-71
2023/03/10 05:03:32;;;;;;;15.63;6.30;;;;;;;9.03;59.70;99418.88;124197;1099;104286;-71
2023/03/10 05:06:04;;;;;;;13.43;5.67;;;;;;;9.06;60.49;99424.19;124182;1099;104169;-71
2023/03/10 05:08:35;;;;;;;12.50;6.23;;;;;;;9.08;59.72;99419.86;124532;1099;104313;-71
2023/03/10 05:11:09;;;;;;;13.87;5.70;;;;;;;9.10;60.41;99426.01;124568;1099;104242;-71
2023/03/10 05:13:40;;;;;;;18.83;6.07;;;;;;;9.15;59.92;99430.52;125051;1099;104231;-72
2023/03/10 05:16:17;;;;;;;19.90;7.13;;;;;;;9.21;60.39;99440.27;124177;1099;105491;-73
2023/03/10 05:18:49;;;;;;;18.53;8.93;;;;;;;9.26;59.94;99443.00;124221;1099;104299;-74
2023/03/10 05:21:23;;;;;;;21.02;9.75;;;;;;;9.27;59.81;99440.41;124223;1099;101939;-72
2023/03/10 05:23:55;;;;;;;18.93;8.80;;;;;;;9.28;60.24;99442.16;124643;1099;104348;-71
2023/03/10 05:26:27;;;;;;;17.13;8.77;;;;;;;9.29;59.96;99443.94;124545;1099;104328;-73
2023/03/10 05:28:58;;;;;;;17.67;8.93;;;;;;;9.29;59.87;99454.41;124620;1099;104175;-72
2023/03/10 05:31:40;;;;;;;19.03;8.00;;;;;;;9.25;60.61;99457.80;124636;1099;104185;-73
2023/03/10 05:34:15;;;;;;;18.17;8.43;;;;;;;9.27;60.54;99463.06;124648;1099;101857;-71
2023/03/10 05:36:47;;;;;;;17.47;8.33;;;;;;;9.25;60.15;99463.03;124886;1098;104195;-72
2023/03/10 05:39:19;;;;;;;15.60;8.03;;;;;;;9.27;60.34;99469.20;124553;1099;104156;-73
2023/03/10 05:41:52;;;;;;;18.98;8.73;;;;;;;9.31;60.19;99467.54;124586;1099;104211;-72
2023/03/10 05:44:25;;;;;;;20.43;9.03;;;;;;;9.34;60.79;99473.72;124597;1099;104306;-72
2023/03/10 05:46:56;;;;;;;19.33;9.23;;;;;;;9.41;60.56;99466.92;124699;1098;104264;-73
2023/03/10 05:49:28;;;;;;;15.90;7.83;;;;;;;9.47;60.89;99476.64;124635;1099;104335;-72
2023/03/10 05:52:00;;;;;;;14.60;7.13;;;;;;;9.53;60.95;99476.78;124723;1098;101925;-71
2023/03/10 05:54:32;;;;;;;16.47;7.43;;;;;;;9.61;60.83;99471.72;124610;1099;104255;-72
2023/03/10 05:57:04;;;;;;;13.73;7.33;;;;;;;9.69;60.52;99475.39;124726;1099;101960;-72
2023/03/10 05:59:36;;;;;;;14.97;7.03;;;;;;;9.76;60.92;99472.08;124720;1098;104396;-72
2023/03/10 06:02:07;;;;;;;13.77;6.87;;;;;;;9.82;60.47;99468.72;125323;1099;101906;-72
2023/03/10 06:04:39;;;;;;;16.20;7.33;;;;;;;9.88;60.96;99471.48;124602;1099;104208;-74
2023/03/10 06:07:10;;;;;;;17.63;8.03;;;;;;;9.95;60.45;99478.60;124628;1099;104178;-72
2023/03/10 06:09:42;;;;;;;12.63;6.50;;;;;;;10.03;60.48;99476.14;124763;1099;101820;-72
2023/03/10 06:12:13;;;;;;;16.27;7.40;;;;;;;10.12;60.92;99481.59;125564;1099;101941;-73
2023/03/10 06:14:44;;;;;;;18.20;7.47;;;;;;;10.21;60.45;99480.91;124780;1099;104166;-72
2023/03/10 06:17:16;;;;;;;20.57;8.13;;;;;;;10.30;60.48;99472.33;125083;1099;101880;-71
2023/03/10 06:19:47;;;;;;;16.90;8.30;;;;;;;10.40;60.87;99482.20;124665;1099;104172;-71
2023/03/10 06:22:20;;;;;;;15.57;8.23;;;;;;;10.50;60.57;99483.25;124643;1098;102307;-72
2023/03/10 06:24:51;;;;;;;17.77;7.60;;;;;;;10.58;60.77;99489.52;124648;1098;104166;-72
2023/03/10 06:27:30;;;;;;;17.23;7.90;;;;;;;10.64;60.72;99497.52;125307;1098;104277;-73
2023/03/10 06:30:02;;;;;;;15.70;7.07;;;;;;;10.68;60.70;99488.86;124606;1099;104282;-71
2023/03/10 06:32:35;;;;;;;17.23;7.30;;;;;;;10.78;60.64;99489.91;124578;1099;104300;-71
2023/03/10 06:35:08;;;;;;;13.97;6.90;;;;;;;10.88;59.95;99480.48;124611;1099;104163;-71
2023/03/10 06:37:39;;;;;;;12.77;6.47;;;;;;;10.94;60.30;99489.34;124629;1098;105681;-72
2023/03/10 06:40:14;;;;;;;12.10;6.27;;;;;;;11.02;60.05;99497.36;124573;1099;104392;-73
2023/03/10 06:42:46;;;;;;;10.57;5.63;;;;;;;11.12;60.46;99506.27;124745;1099;104197;-73
2023/03/10 06:45:19;;;;;;;14.10;6.23;;;;;;;11.20;60.20;99504.66;124673;1099;102524;-74
2023/03/10 06:47:54;;;;;;;11.27;5.80;;;;;;;11.32;59.96;99512.74;124760;1099;102133;-74
2023/03/10 06:50:26;;;;;;;11.93;5.80;;;;;;;11.43;60.07;99514.67;124726;1099;104232;-75
2023/03/10 06:52:57;;;;;;;14.37;6.17;;;;;;;11.54;59.74;99517.48;124697;1099;104210;-72
2023/03/10 06:55:29;;;;;;;12.57;5.90;;;;;;;11.65;59.75;99508.02;124608;1099;102400;-72
2023/03/10 06:58:01;;;;;;;42.73;7.80;;;;;;;11.79;60.08;99503.84;124561;1099;102057;-72
2023/03/10 07:00:33;;;;;;;17.37;5.70;;;;;;;11.95;59.58;99510.27;124735;1099;101836;-72
2023/03/10 07:03:06;;;;;;;11.93;5.50;;;;;;;12.06;59.42;99515.67;124663;1099;104221;-73
2023/03/10 07:05:39;;;;;;;14.25;5.90;;;;;;;12.22;59.25;99509.73;124725;1099;104201;-74
2023/03/10 07:08:14;;;;;;;11.43;5.40;;;;;;;12.41;59.35;99510.85;124697;1099;104313;-73
2023/03/10 07:10:46;;;;;;;17.10;5.57;;;;;;;12.55;58.93;99510.14;124263;1099;104163;-72
2023/03/10 07:13:20;;;;;;;12.37;5.83;;;;;;;12.66;58.40;99505.88;124700;1099;101930;-74
2023/03/10 07:15:54;;;;;;;12.77;6.03;;;;;;;12.77;58.40;99516.53;124843;1099;104392;-76
2023/03/10 07:18:28;;;;;;;12.73;6.40;;;;;;;12.89;58.16;99521.06;124203;1099;104050;-74
2023/03/10 07:21:02;;;;;;;11.30;5.57;;;;;;;12.95;57.46;99529.02;124190;1099;104270;-74
2023/03/10 07:23:34;;;;;;;10.70;5.13;;;;;;;13.02;57.55;99528.20;124679;1099;104268;-73
2023/03/10 07:26:09;;;;;;;18.37;6.43;;;;;;;13.13;57.56;99523.95;124705;1099;104162;-76
2023/03/10 07:28:42;;;;;;;16.60;6.10;;;;;;;13.30;57.49;99524.08;124800;1099;104166;-76
2023/03/10 07:31:15;;;;;;;14.73;5.83;;;;;;;13.41;56.75;99521.56;124640;1099;104107;-74
2023/03/10 07:33:48;;;;;;;18.23;6.27;;;;;;;13.47;57.13;99533.92;124246;1099;104229;-75
2023/03/10 07:36:24;;;;;;;11.55;5.95;;;;;;;13.51;56.52;99538.37;124809;1099;101929;-74
2023/03/10 07:39:13;;;;;;;10.43;4.73;;;;;;;13.55;56.27;99537.50;124740;1099;104238;-76
2023/03/10 07:41:51;;;;;;;13.17;5.93;;;;;;;13.57;56.08;99535.78;125076;1099;104147;-76
2023/03/10 07:44:30;;;;;;;10.63;4.60;;;;;;;13.55;54.96;99539.27;124918;1099;104166;-77
2023/03/10 07:47:20;;;;;;;9.33;4.40;;;;;;;13.60;55.50;99534.90;125428;1099;104312;-77
2023/03/10 07:50:02;;;;;;;7.60;4.43;;;;;;;13.70;55.16;99538.48;124946;1099;104316;-76
2023/03/10 07:52:38;;;;;;;10.93;4.50;;;;;;;13.75;54.33;99548.20;125002;1099;102041;-78
2023/03/10 07:55:17;;;;;;;9.00;4.57;;;;;;;13.81;55.09;99539.47;124824;1098;104218;-76
2023/03/10 07:57:58;;;;;;;8.70;4.60;;;;;;;13.84;54.77;99543.00;124562;1099;104284;-79
2023/03/10 08:00:42;;;;;;;7.50;4.17;;;;;;;13.94;55.28;99543.94;125229;1099;104220;-78
2023/03/10 08:03:19;;;;;;;6.30;4.07;;;;;;;14.02;54.26;99541.34;125062;1099;104236;-77
2023/03/10 08:05:51;;;;;;;7.20;4.37;;;;;;;14.06;54.57;99545.78;124530;1099;102002;-76
2023/03/10 08:08:23;;;;;;;8.77;4.40;;;;;;;14.09;54.18;99550.20;124904;1099;102159;-76
2023/03/10 08:11:08;;;;;;;11.70;4.57;;;;;;;14.13;53.96;99547.59;126050;1098;104238;-76
2023/03/10 08:13:40;;;;;;;13.17;4.77;;;;;;;14.21;52.88;99558.20;125212;1099;101882;-77
2023/03/10 08:16:37;;;;;;;14.65;4.75;;;;;;;14.30;53.65;99555.58;124664;1099;104274;-76
2023/03/10 08:19:29;;;;;;;11.63;4.30;;;;;;;14.46;52.88;99542.46;124623;1099;104153;-78
2023/03/10 08:22:28;;;;;;;8.70;4.20;;;;;;;14.54;52.47;99546.91;124893;1099;117770;-78
2023/03/10 08:25:11;;;;;;;9.47;4.67;;;;;;;14.48;51.92;99552.16;124850;1099;104172;-72
2023/03/10 08:27:51;;;;;;;12.45;4.90;;;;;;;14.51;52.75;99553.95;124858;1098;104069;-77
2023/03/10 08:30:24;;;;;;;9.57;4.87;;;;;;;14.63;52.10;99547.85;124847;1099;104343;-75
2023/03/10 08:32:58;;;;;;;11.43;4.80;;;;;;;14.72;52.04;99548.80;124224;1099;102087;-73
2023/03/10 08:35:33;;;;;;;11.80;4.90;;;;;;;14.79;52.07;99549.69;124240;1099;104303;-73
2023/03/10 08:38:08;;;;;;;10.90;5.03;;;;;;;14.76;51.59;99547.03;124555;1099;104198;-73
2023/03/10 08:40:39;;;;;;;9.33;4.83;;;;;;;14.80;51.78;99550.56;124781;1099;104272;-73
2023/03/10 08:43:12;;;;;;;;;;;;;;;14.92;50.87;99553.23;124719;1099;104288;-74
2023/03/10 08:45:43;;;;;;;12.43;4.60;;;;;;;15.03;50.94;99545.34;124205;1099;104168;-74
2023/03/10 08:48:15;;;;;;;11.37;5.10;;;;;;;15.14;51.32;99556.81;124667;1099;104409;-74
2023/03/10 08:50:47;;;;;;;12.00;5.40;;;;;;;15.21;50.78;99563.88;124666;1099;104147;-77
2023/03/10 08:53:19;;;;;;;10.43;4.90;;;;;;;15.33;51.56;99563.00;124679;1099;104188;-75
2023/03/10 08:55:52;;;;;;;13.07;5.13;;;;;;;15.46;50.82;99563.92;124603;1099;104268;-74
2023/03/10 08:58:24;;;;;;;10.48;5.35;;;;;;;15.63;50.96;99558.64;124603;1099;104188;-72
2023/03/10 09:00:56;;;;;;;11.77;5.40;;;;;;;15.85;50.33;99551.61;124589;1098;104239;-72
2023/03/10 09:03:29;;;;;;;10.60;5.33;;;;;;;15.93;50.36;99547.18;124650;1099;104197;-75
2023/03/10 09:06:01;;;;;;;11.43;5.60;;;;;;;15.97;50.52;99548.95;124920;1099;104692;-76
2023/03/10 09:08:38;;;;;;;11.33;5.53;;;;;;;16.07;50.73;99543.64;125009;1099;104204;-78
2023/03/10 09:11:23;;;;;;;11.50;5.50;;;;;;;16.16;49.73;99523.32;124786;1099;104159;-74
2023/03/10 09:13:57;;;;;;;12.05;5.37;;;;;;;16.25;49.47;99514.48;124673;1099;104229;-76
2023/03/10 09:16:32;;;;;;;11.63;5.80;;;;;;;16.26;48.95;99510.93;124624;1099;104239;-72
2023/03/10 09:19:08;;;;;;;11.20;5.30;;;;;;;16.25;49.09;99524.17;124634;1099;104235;-74
2023/03/10 09:21:41;;;;;;;10.33;5.50;;;;;;;16.25;49.33;99517.13;124650;1099;104214;-75
2023/03/10 09:24:16;;;;;;;12.25;5.65;;;;;;;16.24;48.13;99511.84;124642;1098;104229;-74
2023/03/10 09:26:49;;;;;;;11.53;5.50;;;;;;;16.09;46.79;99507.46;124697;1099;104262;-76
2023/03/10 09:29:20;;;;;;;11.40;5.43;;;;;;;16.18;47.14;99513.59;124648;1098;101980;-75
2023/03/10 09:32:01;;;;;;;12.03;5.30;;;;;;;16.27;47.79;99515.34;124594;1099;102664;-76
2023/03/10 09:34:33;;;;;;;10.97;4.50;;;;;;;16.42;47.20;99522.34;124725;1099;104270;-75
2023/03/10 09:37:05;;;;;;;13.23;5.53;;;;;;;16.56;47.20;99516.98;124865;1099;102019;-78
2023/03/10 09:39:36;;;;;;;11.03;4.43;;;;;;;16.73;47.94;99514.27;125153;1099;101916;-80
2023/03/10 09:42:23;;;;;;;10.23;4.33;;;;;;;16.92;47.85;99512.42;124854;1099;104275;-79
2023/03/10 09:45:03;;;;;;;11.57;3.87;;;;;;;17.07;47.42;99506.16;124803;1099;104089;-78
2023/03/10 09:47:48;;;;;;;7.70;3.90;;;;;;;17.12;47.18;99500.83;124699;1099;104239;-78
2023/03/10 09:50:33;;;;;;;8.10;4.00;;;;;;;17.20;47.13;99499.89;124700;1099;102338;-78
2023/03/10 09:53:19;;;;;;;7.77;3.67;;;;;;;17.22;46.53;99498.09;124793;1099;104291;-80
2023/03/10 09:55:52;;;;;;;9.40;3.70;;;;;;;17.34;46.02;99496.23;124515;1099;102069;-79
2023/03/10 09:58:33;;;;;;;7.63;3.73;;;;;;;17.40;46.18;99490.88;124921;1099;101913;-78
2023/03/10 10:01:05;;;;;;;10.00;3.80;;;;;;;17.46;46.23;99476.70;124514;1099;104622;-74
2023/03/10 10:03:41;;;;;;;7.70;3.57;;;;;;;17.49;46.08;99474.89;124658;1099;104238;-77
2023/03/10 10:06:19;;;;;;;11.27;3.07;;;;;;;17.49;45.89;99463.42;124722;1099;102316;-79
2023/03/10 10:08:58;;;;;;;7.57;3.10;;;;;;;17.53;45.23;99460.73;124583;1099;104169;-77
2023/03/10 10:11:41;;;;;;;19.53;4.30;;;;;;;17.64;45.43;99457.07;124993;1099;104191;-79
2023/03/10 10:14:23;;;;;;;6.83;3.07;;;;;;;17.66;45.20;99450.87;124611;1099;104229;-76
2023/03/10 10:17:02;;;;;;;5.40;3.00;;;;;;;17.68;45.12;99453.50;124353;1102;104313;-75
2023/03/10 10:19:34;;;;;;;5.13;2.90;;;;;;;17.61;43.98;99442.95;124761;1099;104181;-79
2023/03/10 10:22:14;;;;;;;7.13;2.83;;;;;;;17.61;44.48;99435.00;124689;1099;104485;-77
2023/03/10 10:25:01;;;;;;;5.50;2.70;;;;;;;17.63;44.17;99434.98;124800;1099;104341;-79
2023/03/10 10:27:34;;;;;;;5.43;3.10;;;;;;;17.63;44.19;99419.06;125093;1099;103456;-75
2023/03/10 10:30:34;;;;;;;5.37;3.17;;;;;;;17.55;43.30;99415.63;125091;1099;104204;-75
2023/03/10 10:33:12;;;;;;;4.17;2.92;;;;;;;17.51;43.16;99406.80;125149;1099;102106;-78
2023/03/10 10:35:59;;;;;;;4.40;3.07;;;;;;;17.54;43.35;99414.72;125201;1099;102308;-76
2023/03/10 10:38:52;;;;;;;4.57;2.80;;;;;;;17.58;43.28;99410.28;125983;1099;101837;-77
2023/03/10 10:41:30;;;;;;;4.23;2.67;;;;;;;17.60;42.47;99403.18;125324;1099;102244;-77
2023/03/10 10:44:09;;;;;;;3.67;2.30;;;;;;;17.65;42.52;99409.31;125242;1099;102411;-77
2023/03/10 10:46:54;;;;;;;4.40;2.20;;;;;;;17.74;42.50;99405.69;125233;1099;102667;-78
2023/03/10 10:49:33;;;;;;;4.40;2.60;;;;;;;17.85;42.53;99401.13;125075;1099;102120;-76
2023/03/10 10:52:25;;;;;;;4.73;2.33;;;;;;;18.03;42.37;99385.91;125295;1098;104252;-78
2023/03/10 10:55:33;;;;;;;4.13;2.33;;;;;;;18.12;41.92;99388.45;126656;1098;101865;-79
2023/03/10 10:58:22;;;;;;;6.27;2.23;;;;;;;18.16;41.78;99386.66;125283;1099;104245;-76
2023/03/10 11:00:59;;;;;;;4.13;2.13;;;;;;;18.11;41.25;99376.09;125109;1099;104277;-78
2023/03/10 11:03:40;;;;;;;11.40;2.57;;;;;;;18.18;41.91;99374.23;125012;1099;101826;-77
2023/03/10 11:06:27;;;;;;;2.10;1.80;;;;;;;18.25;40.77;99378.57;124836;1099;104156;-80
2023/03/10 11:09:07;;;;;;;3.40;2.10;;;;;;;18.33;40.80;99369.58;125042;1099;104201;-74
2023/03/10 11:11:50;;;;;;;2.90;1.80;;;;;;;18.40;40.64;99369.49;125151;1099;104265;-82
2023/03/10 11:14:34;;;;;;;3.67;1.80;;;;;;;18.51;40.88;99362.23;125506;1099;102314;-82
2023/03/10 11:17:17;;;;;;;3.57;1.90;;;;;;;18.63;40.32;99361.19;125466;1099;102394;-82
2023/03/10 11:20:00;;;;;;;4.67;2.03;;;;;;;18.63;40.35;99346.11;125301;1099;102093;-79
2023/03/10 11:22:43;;;;;;;5.57;1.50;;;;;;;18.60;40.15;99335.53;124939;1099;104214;-79
2023/03/10 11:25:40;;;;;;;3.60;1.97;;;;;;;18.64;39.96;99326.62;125301;1099;104287;-81
2023/03/10 11:28:36;;;;;;;5.10;1.73;;;;;;;18.62;38.84;99320.47;125800;1099;103253;-80
2023/03/10 11:31:35;;;;;;;3.53;2.00;;;;;;;18.63;39.78;99326.65;125615;1098;102816;-78
2023/03/10 11:34:20;;;;;;;2.70;1.80;;;;;;;18.62;38.82;99307.19;125771;1099;102346;-82
2023/03/10 11:37:08;;;;;;;7.87;2.62;;;;;;;18.61;38.97;99308.08;125604;1098;102808;-80
2023/03/10 11:39:56;;;;;;;4.80;2.00;;;;;;;18.59;38.54;99301.02;126008;1099;102008;-79
2023/03/10 11:42:47;;;;;;;5.40;2.40;;;;;;;18.63;38.00;99278.83;125178;1099;104325;-77
2023/03/10 11:45:35;;;;;;;3.50;2.40;;;;;;;18.62;38.03;99304.53;125116;1098;102109;-78
2023/03/10 11:48:35;;;;;;;4.97;2.53;;;;;;;18.57;38.07;99294.87;125915;1098;102125;-81
2023/03/10 11:51:20;;;;;;;4.83;2.53;;;;;;;18.57;38.62;99298.39;116546;1099;10001015;-81
2023/03/10 11:54:13;;;;;;;4.40;2.73;;;;;;;18.51;38.19;99293.17;125515;1099;102631;-82